Time;durP1;ratioP1;P1;durP2;ratioP2;P2;SDS_P1;SDS_P2;PMS_P1;PMS_P2;Temp;Humidity;BMP_temperature;BMP_pressure;BME280_temperature;BME280_humidity;BME280_pressure;Samples;Min_cycle;Max_cycle;Signal;HPM_P1;HPM_P2
2021/08/16 00:01:58;;;;;;;;;5.75;5.75;;;;;25.10;45.44;100873.25;5057615;28;45949;-65
2021/08/16 00:04:23;;;;;;;;;5.25;5.25;;;;;25.04;45.54;100865.59;5069030;28;45477;-66
2021/08/16 00:06:49;;;;;;;;;3.67;3.67;;;;;25.02;45.38;100879.28;5072405;28;45531;-65
2021/08/16 00:09:14;;;;;;;;;4.00;4.00;;;;;25.00;45.26;100875.78;5071025;28;46082;-65
2021/08/16 00:11:40;;;;;;;;;2.33;2.33;;;;;24.98;44.62;100868.75;5069229;27;45645;-64
2021/08/16 00:14:06;;;;;;;;;3.67;3.00;;;;;24.94;44.66;100869.00;5070309;28;45425;-64
2021/08/16 00:16:32;;;;;;;;;5.00;4.00;;;;;24.86;44.88;100876.88;5073547;27;45287;-65
2021/08/16 00:18:58;;;;;;;;;2.67;2.67;;;;;24.80;44.14;100876.53;5062731;28;47860;-65
2021/08/16 00:21:23;;;;;;;;;5.00;5.00;;;;;24.73;44.57;100876.13;5067284;27;45431;-65
2021/08/16 00:23:49;;;;;;;;;4.33;3.00;;;;;24.69;44.59;100871.94;5069711;28;45510;-64
2021/08/16 00:26:15;;;;;;;;;3.00;3.00;;;;;24.65;44.49;100871.31;5074714;27;45583;-64
2021/08/16 00:28:41;;;;;;;;;6.00;4.00;;;;;24.61;44.68;100871.66;5069548;27;47299;-64
2021/08/16 00:31:07;;;;;;;;;4.00;3.00;;;;;24.57;45.00;100864.75;5069667;27;45832;-65
2021/08/16 00:33:33;;;;;;;;;2.67;2.67;;;;;24.54;44.97;100859.56;5069671;28;45429;-65
2021/08/16 00:35:59;;;;;;;;;4.00;3.00;;;;;24.51;44.76;100866.06;5058366;27;45601;-65
2021/08/16 00:38:25;;;;;;;;;2.33;2.33;;;;;24.47;44.64;100870.03;5063393;28;47273;-64
2021/08/16 00:40:50;;;;;;;;;2.67;1.67;;;;;24.44;44.54;100870.25;5071377;27;45817;-65
2021/08/16 00:43:16;;;;;;;;;3.00;3.00;;;;;24.41;44.57;100872.34;5068684;28;45382;-65
2021/08/16 00:45:43;;;;;;;;;2.33;2.33;;;;;24.35;44.53;100873.69;5065127;27;45555;-65
2021/08/16 00:48:09;;;;;;;;;2.67;2.00;;;;;24.30;44.56;100862.31;5075231;28;47975;-65
2021/08/16 00:50:35;;;;;;;;;3.00;3.00;;;;;24.26;44.41;100867.06;5075574;27;45315;-64
2021/08/16 00:53:01;;;;;;;;;1.33;1.33;;;;;24.22;44.29;100864.72;5082745;27;45548;-64
2021/08/16 00:55:26;;;;;;;;;1.67;1.67;;;;;24.19;43.78;100864.97;5064285;28;45514;-65
2021/08/16 00:57:54;;;;;;;;;2.67;2.33;;;;;24.15;44.56;100864.34;5070033;28;47173;-64
2021/08/16 01:00:20;;;;;;;;;3.00;3.00;;;;;24.13;44.30;100868.13;5075796;27;46465;-65
2021/08/16 01:02:46;;;;;;;;;3.00;2.00;;;;;24.07;44.65;100864.91;5066412;28;45496;-64
2021/08/16 01:05:14;;;;;;;;;2.00;2.00;;;;;24.05;44.42;100852.44;5075834;27;45494;-65
2021/08/16 01:07:48;;;;;;;;;2.00;1.67;;;;;24.04;44.47;100851.59;5077505;28;47522;-65
2021/08/16 01:10:14;;;;;;;;;2.67;1.00;;;;;23.98;44.21;100843.91;5066547;27;45302;-65
2021/08/16 01:12:39;;;;;;;;;3.33;3.00;;;;;23.96;44.41;100851.28;5077586;27;45657;-64
2021/08/16 01:15:06;;;;;;;;;3.00;1.67;;;;;23.96;44.59;100845.88;5075337;27;45219;-65
2021/08/16 01:17:33;;;;;;;;;3.00;3.00;;;;;23.99;44.65;100853.75;5077599;27;46568;-65
2021/08/16 01:19:59;;;;;;;;;2.00;2.00;;;;;24.03;44.61;100859.84;5062566;27;45519;-64
2021/08/16 01:22:25;;;;;;;;;2.67;2.67;;;;;24.04;44.20;100854.28;5076320;28;45534;-65
2021/08/16 01:24:51;;;;;;;;;3.00;3.00;;;;;24.06;44.58;100856.88;5067985;27;45562;-65
2021/08/16 01:27:16;;;;;;;;;1.33;1.33;;;;;24.04;44.29;100850.72;5062486;27;47017;-65
2021/08/16 01:29:42;;;;;;;;;3.00;2.67;;;;;24.04;44.54;100850.72;5071866;28;45634;-64
2021/08/16 01:32:09;;;;;;;;;1.67;1.67;;;;;24.05;44.18;100858.75;5064697;28;45666;-64
2021/08/16 01:34:34;;;;;;;;;2.00;1.33;;;;;24.08;44.32;100860.34;5073052;28;45426;-65
2021/08/16 01:37:00;;;;;;;;;1.67;1.67;;;;;24.08;44.41;100857.63;5064764;28;47526;-64
2021/08/16 01:39:27;;;;;;;;;4.00;3.00;;;;;24.07;44.44;100862.19;5067680;27;45363;-64
2021/08/16 01:41:53;;;;;;;;;2.00;2.00;;;;;24.07;44.23;100864.03;5049534;28;45580;-64
2021/08/16 01:44:22;;;;;;;;;2.00;2.00;;;;;24.07;44.18;100861.31;5058380;27;45781;-65
2021/08/16 01:46:48;;;;;;;;;1.67;1.67;;;;;24.05;44.29;100864.16;5068224;27;47258;-64
2021/08/16 01:49:14;;;;;;;;;3.00;3.00;;;;;24.06;44.50;100865.88;5083475;27;45257;-64
2021/08/16 01:51:40;;;;;;;;;1.00;1.00;;;;;24.05;44.21;100864.16;5067639;28;45369;-65
2021/08/16 01:54:08;;;;;;;;;0.33;0.33;;;;;24.04;44.40;100859.72;5067192;27;45305;-64
2021/08/16 01:56:33;;;;;;;;;2.00;2.00;;;;;24.03;44.32;100855.28;5064876;28;46151;-64
2021/08/16 01:58:59;;;;;;;;;2.00;2.00;;;;;24.04;44.25;100858.84;5063466;28;45381;-65
2021/08/16 02:01:25;;;;;;;;;1.00;1.00;;;;;24.04;44.54;100856.16;5063385;28;45422;-65
2021/08/16 02:03:51;;;;;;;;;2.67;2.67;;;;;24.02;44.38;100852.69;5065732;28;45515;-64
2021/08/16 02:06:16;;;;;;;;;2.00;2.00;;;;;24.02;44.19;100855.41;5084514;27;46201;-65
2021/08/16 02:08:42;;;;;;;;;2.67;2.67;;;;;24.01;44.10;100859.06;5064062;28;45333;-65
2021/08/16 02:11:08;;;;;;;;;2.33;2.00;;;;;23.99;44.38;100861.91;5066699;28;45603;-65
2021/08/16 02:13:34;;;;;;;;;1.00;1.00;;;;;23.97;44.61;100854.88;5070765;27;45609;-65
2021/08/16 02:16:01;;;;;;;;;1.00;1.00;;;;;23.99;44.50;100864.59;5073452;28;47409;-64
2021/08/16 02:18:26;;;;;;;;;1.00;1.00;;;;;23.98;44.47;100852.03;5058752;27;45393;-65
2021/08/16 02:20:52;;;;;;;;;2.33;2.00;;;;;24.01;44.54;100865.38;5064808;28;45360;-64
2021/08/16 02:23:17;;;;;;;;;2.33;2.33;;;;;24.01;44.77;100856.34;5066395;28;45397;-64
2021/08/16 02:25:43;;;;;;;;;2.00;2.00;;;;;24.01;44.65;100857.25;5065355;27;47165;-64
2021/08/16 02:28:08;;;;;;;;;4.00;1.33;;;;;24.01;44.69;100864.50;5071151;28;45488;-64
2021/08/16 02:30:34;;;;;;;;;3.67;2.67;;;;;23.98;44.57;100857.47;5061722;27;45599;-64
2021/08/16 02:33:00;;;;;;;;;4.33;1.00;;;;;23.96;44.55;100848.59;5070370;28;45444;-64
2021/08/16 02:35:25;;;;;;;;;1.33;1.33;;;;;23.94;44.61;100861.38;5060709;28;47188;-64
2021/08/16 02:37:51;;;;;;;;;3.33;2.00;;;;;23.93;44.60;100853.38;5068005;28;46014;-64
2021/08/16 02:40:16;;;;;;;;;0.67;0.67;;;;;23.89;44.43;100849.19;5059239;28;45417;-64
2021/08/16 02:42:43;;;;;;;;;2.00;2.00;;;;;23.88;45.03;100847.41;5071808;28;45570;-63
2021/08/16 02:45:09;;;;;;;;;3.67;2.67;;;;;23.88;44.66;100856.41;5065150;27;47310;-64
2021/08/16 02:47:35;;;;;;;;;3.33;3.33;;;;;23.87;44.95;100851.97;5068310;28;45272;-64
2021/08/16 02:50:01;;;;;;;;;1.00;1.00;;;;;23.86;44.86;100846.66;5065413;28;45357;-63
2021/08/16 02:52:26;;;;;;;;;2.00;1.00;;;;;23.83;44.96;100852.34;5068822;28;45253;-64
2021/08/16 02:54:52;;;;;;;;;3.33;0.67;;;;;23.83;44.90;100849.63;5064688;28;48034;-64
2021/08/16 02:57:21;;;;;;;;;4.00;2.67;;;;;23.83;44.84;100853.19;5069608;28;45706;-64
2021/08/16 02:59:46;;;;;;;;;1.00;1.00;;;;;23.83;44.95;100846.91;5069849;28;45385;-65
2021/08/16 03:02:12;;;;;;;;;1.00;1.00;;;;;23.84;45.17;100851.34;5064098;27;45521;-64
2021/08/16 03:04:37;;;;;;;;;3.00;1.67;;;;;23.83;44.76;100855.03;5071549;28;48412;-64
2021/08/16 03:07:03;;;;;;;;;3.33;2.33;;;;;23.79;44.87;100857.13;5079124;28;45350;-63
2021/08/16 03:09:29;;;;;;;;;3.00;2.00;;;;;23.75;45.20;100861.88;5067913;28;45358;-64
2021/08/16 03:11:56;;;;;;;;;2.00;2.00;;;;;23.75;45.25;100861.03;5070682;28;45270;-63
2021/08/16 03:14:21;;;;;;;;;2.67;2.67;;;;;23.72;45.44;100854.00;5084391;27;47669;-65
2021/08/16 03:16:47;;;;;;;;;3.00;1.00;;;;;23.71;45.15;100854.97;5070684;28;45474;-64
2021/08/16 03:19:13;;;;;;;;;1.00;1.00;;;;;23.70;45.38;100857.81;5071063;27;45475;-63
2021/08/16 03:21:38;;;;;;;;;2.00;2.00;;;;;23.68;45.39;100857.06;5070220;28;45299;-63
2021/08/16 03:24:04;;;;;;;;;2.00;2.00;;;;;23.66;45.35;100856.31;5069785;28;47970;-64
2021/08/16 03:26:30;;;;;;;;;3.00;3.00;;;;;23.65;45.39;100860.00;5064563;28;45777;-64
2021/08/16 03:28:55;;;;;;;;;2.33;2.00;;;;;23.64;45.50;100852.84;5071081;27;45333;-64
2021/08/16 03:31:21;;;;;;;;;3.00;3.00;;;;;23.65;45.85;100860.00;5064473;28;45331;-64
2021/08/16 03:33:47;;;;;;;;;3.00;2.00;;;;;23.64;45.81;100861.84;5071047;27;47206;-64
2021/08/16 03:36:12;;;;;;;;;2.33;2.33;;;;;23.62;46.04;100854.78;5071643;28;45388;-64
2021/08/16 03:38:39;;;;;;;;;4.00;4.00;;;;;23.60;45.94;100852.19;5069724;28;45715;-64
2021/08/16 03:41:05;;;;;;;;;2.00;2.00;;;;;23.62;46.49;100854.78;5071271;28;45461;-65
2021/08/16 03:43:31;;;;;;;;;1.00;1.00;;;;;23.62;46.50;100855.66;5063399;27;48533;-65
2021/08/16 03:45:57;;;;;;;;;3.00;2.33;;;;;23.62;46.50;100855.66;5068342;28;45497;-64
2021/08/16 03:48:22;;;;;;;;;2.67;2.67;;;;;23.63;46.73;100851.09;5064105;28;45679;-65
2021/08/16 03:50:48;;;;;;;;;1.33;1.33;;;;;23.61;46.93;100851.22;5070414;28;45413;-64
2021/08/16 03:53:14;;;;;;;;;3.00;3.00;;;;;23.62;46.47;100849.38;5063131;27;45457;-64
2021/08/16 03:55:39;;;;;;;;;2.00;2.00;;;;;23.62;46.65;100858.34;5071194;28;45367;-64
2021/08/16 03:58:05;;;;;;;;;2.00;2.00;;;;;23.60;46.69;100854.91;5063334;27;45384;-64
2021/08/16 04:00:31;;;;;;;;;3.33;3.33;;;;;23.60;46.98;100852.19;5057003;28;45385;-64
2021/08/16 04:02:57;;;;;;;;;2.00;2.00;;;;;23.60;46.70;100848.63;5057436;28;47989;-64
2021/08/16 04:05:22;;;;;;;;;4.00;3.00;;;;;23.56;46.99;100849.81;5060907;28;46098;-64
2021/08/16 04:07:48;;;;;;;;;3.00;3.00;;;;;23.53;47.21;100844.63;5061003;28;45364;-64
2021/08/16 04:10:15;;;;;;;;;5.00;4.00;;;;;23.53;47.12;100848.19;5059847;28;45294;-63
2021/08/16 04:12:41;;;;;;;;;3.00;3.00;;;;;23.52;47.53;100849.16;5060015;28;48103;-65
2021/08/16 04:15:09;;;;;;;;;3.00;3.00;;;;;23.51;47.16;100849.28;5060987;28;45591;-64
2021/08/16 04:17:35;;;;;;;;;2.33;2.33;;;;;23.49;47.25;100852.06;5075622;27;45662;-63
2021/08/16 04:20:00;;;;;;;;;2.00;2.00;;;;;23.46;47.34;100861.31;5060881;28;45353;-64
2021/08/16 04:22:26;;;;;;;;;2.00;2.00;;;;;23.44;47.57;100862.41;5060509;28;47335;-64
2021/08/16 04:24:53;;;;;;;;;4.33;4.33;;;;;23.42;47.43;100848.09;5060239;28;45377;-63
2021/08/16 04:27:18;;;;;;;;;2.33;1.33;;;;;23.40;47.32;100852.78;5060704;28;44875;-64
2021/08/16 04:29:44;;;;;;;;;2.00;1.67;;;;;23.36;47.41;100856.66;5060924;28;45582;-64
2021/08/16 04:32:09;;;;;;;;;2.00;2.00;;;;;23.35;47.47;100861.22;5088666;27;47599;-63
2021/08/16 04:34:35;;;;;;;;;4.00;2.67;;;;;23.33;47.50;100857.75;5053866;28;45271;-63
2021/08/16 04:37:00;;;;;;;;;4.00;2.00;;;;;23.33;47.47;100855.03;5068127;28;45286;-63
2021/08/16 04:39:26;;;;;;;;;4.67;4.67;;;;;23.34;47.58;100855.91;5068356;28;45484;-64
2021/08/16 04:41:51;;;;;;;;;4.00;3.00;;;;;23.34;47.81;100862.19;5074852;28;47066;-63
2021/08/16 04:44:17;;;;;;;;;1.67;1.67;;;;;23.31;47.81;100862.44;5073277;27;45310;-63
2021/08/16 04:46:42;;;;;;;;;1.33;1.33;;;;;23.30;47.66;100857.13;5075111;28;45455;-64
2021/08/16 04:49:08;;;;;;;;;2.00;2.00;;;;;23.26;47.36;100861.91;5066009;27;45700;-64
2021/08/16 04:51:33;;;;;;;;;1.33;1.33;;;;;23.25;47.46;100868.31;5065620;28;45820;-64
2021/08/16 04:53:59;;;;;;;;;2.67;2.67;;;;;23.22;47.46;100863.06;5092620;27;45636;-64
2021/08/16 04:56:24;;;;;;;;;1.33;1.33;;;;;23.19;47.45;100869.59;5062910;28;45683;-63
2021/08/16 04:58:49;;;;;;;;;2.67;2.67;;;;;23.18;47.47;100859.75;5062051;28;45473;-64
2021/08/16 05:01:15;;;;;;;;;4.00;2.00;;;;;23.17;47.45;100866.13;5062214;28;45477;-64
2021/08/16 05:03:41;;;;;;;;;3.00;2.00;;;;;23.14;47.55;100871.78;5061416;28;46074;-64
2021/08/16 05:06:07;;;;;;;;;2.00;2.00;;;;;23.10;47.51;100875.66;5061161;28;45464;-64
2021/08/16 05:08:36;;;;;;;;;1.00;1.00;;;;;23.06;47.33;100865.16;5063680;28;45737;-64
2021/08/16 05:11:05;;;;;;;;;2.00;2.00;;;;;23.03;47.60;100870.81;5060009;28;48778;-64
2021/08/16 05:13:31;;;;;;;;;1.00;1.00;;;;;23.03;48.09;100881.63;5064674;27;45505;-65
2021/08/16 05:15:57;;;;;;;;;4.00;3.50;;;;;23.02;47.40;100872.66;5062823;28;45381;-64
2021/08/16 05:18:23;;;;;;;;;2.00;2.00;;;;;23.03;47.85;100877.09;5063768;27;45353;-64
2021/08/16 05:20:49;;;;;;;;;1.00;1.00;;;;;23.04;47.68;100876.09;5054635;28;48184;-65
2021/08/16 05:23:17;;;;;;;;;2.00;2.00;;;;;23.03;47.66;100882.50;5057722;28;45319;-64
2021/08/16 05:25:43;;;;;;;;;1.00;1.00;;;;;23.02;47.55;100886.19;5054710;27;45853;-65
2021/08/16 05:28:08;;;;;;;;;2.67;2.33;;;;;23.01;48.11;100883.59;5055915;28;45499;-63
2021/08/16 05:30:34;;;;;;;;;2.00;1.00;;;;;23.00;47.57;100890.84;5054636;28;48280;-64
2021/08/16 05:33:00;;;;;;;;;2.00;0.33;;;;;22.98;47.85;100890.06;5057135;28;45547;-65
2021/08/16 05:35:26;;;;;;;;;1.00;1.00;;;;;22.95;47.68;100890.28;5056931;28;45485;-64
2021/08/16 05:37:51;;;;;;;;;1.33;1.33;;;;;22.94;47.46;100893.09;5054799;28;45534;-63
2021/08/16 05:40:17;;;;;;;;;1.00;1.00;;;;;22.92;47.32;100895.06;5058481;28;45761;-63
2021/08/16 05:42:43;;;;;;;;;2.00;2.00;;;;;22.88;47.84;100895.28;5057750;28;45290;-63
2021/08/16 05:45:09;;;;;;;;;2.00;1.00;;;;;22.88;47.62;100897.13;5051638;28;45350;-62
2021/08/16 05:47:35;;;;;;;;;1.00;1.00;;;;;22.89;48.12;100901.56;5055324;28;45354;-63
2021/08/16 05:50:00;;;;;;;;;2.00;1.00;;;;;22.88;48.19;100903.41;5057613;28;47572;-63
2021/08/16 05:52:26;;;;;;;;;2.00;0.00;;;;;22.89;47.97;100896.13;5059342;28;45351;-63
2021/08/16 05:54:52;;;;;;;;;1.00;0.33;;;;;22.90;48.05;100895.16;5074800;28;45378;-63
2021/08/16 05:57:18;;;;;;;;;2.00;2.00;;;;;22.88;47.99;100902.53;5059428;28;45421;-64
2021/08/16 05:59:43;;;;;;;;;0.67;0.67;;;;;22.88;48.00;100902.53;5056328;28;47238;-65
2021/08/16 06:02:09;;;;;;;;;1.00;1.00;;;;;22.87;48.30;100907.06;5053421;28;45390;-65
2021/08/16 06:04:34;;;;;;;;;1.67;1.67;;;;;22.88;48.13;100916.06;5058458;28;46405;-64
2021/08/16 06:07:00;;;;;;;;;0.00;0.00;;;;;22.88;48.25;100916.94;5057017;28;46562;-63
2021/08/16 06:09:26;;;;;;;;;1.67;1.67;;;;;22.90;47.94;100917.69;5055650;28;46705;-64
2021/08/16 06:11:51;;;;;;;;;1.00;1.00;;;;;22.88;48.07;100908.81;5050672;28;45414;-63
2021/08/16 06:14:17;;;;;;;;;1.00;1.00;;;;;22.90;47.57;100909.56;5057949;28;45377;-64
2021/08/16 06:16:42;;;;;;;;;2.00;2.00;;;;;22.90;47.94;100917.69;5051990;28;45545;-63
2021/08/16 06:19:08;;;;;;;;;2.33;2.33;;;;;22.93;48.13;100918.44;5055723;28;46862;-64
2021/08/16 06:21:39;;;;;;;;;2.00;1.00;;;;;22.94;48.21;100918.31;5037565;28;46031;-64
2021/08/16 06:24:05;;;;;;;;;2.00;1.00;;;;;22.96;47.96;100932.59;5047908;28;45591;-64
2021/08/16 06:26:30;;;;;;;;;1.00;1.00;;;;;22.97;48.00;100911.81;5074646;28;45890;-64
2021/08/16 06:28:56;;;;;;;;;2.33;1.00;;;;;22.98;48.14;100924.38;5057191;28;46559;-64
2021/08/16 06:31:21;;;;;;;;;0.33;0.33;;;;;22.98;48.16;100917.13;5051253;28;45346;-63
2021/08/16 06:33:47;;;;;;;;;1.67;1.00;;;;;22.97;48.04;100920.81;5044504;28;45493;-64
2021/08/16 06:36:12;;;;;;;;;1.33;1.33;;;;;22.96;47.99;100919.06;5058742;28;45621;-63
2021/08/16 06:38:38;;;;;;;;;1.33;0.33;;;;;22.98;47.99;100935.22;5058237;28;47117;-63
2021/08/16 06:41:04;;;;;;;;;1.00;1.00;;;;;23.01;48.09;100929.59;5050688;28;45319;-65
2021/08/16 06:43:32;;;;;;;;;1.00;1.00;;;;;23.03;48.20;100935.78;5062485;28;45522;-65
2021/08/16 06:45:58;;;;;;;;;0.33;0.33;;;;;23.03;48.21;100943.88;5056576;28;45578;-64
2021/08/16 06:48:24;;;;;;;;;0.67;0.67;;;;;23.04;48.16;100935.66;5061336;28;46954;-64
2021/08/16 06:50:49;;;;;;;;;0.33;0.33;;;;;23.07;48.02;100942.69;5058725;28;45475;-64
2021/08/16 06:53:15;;;;;;;;;0.00;0.00;;;;;;;;5060522;28;45364;-64
2021/08/16 06:55:42;;;;;;;;;3.00;1.00;;;;;23.10;48.25;100942.47;5062210;28;45409;-66
2021/08/16 06:58:08;;;;;;;;;0.00;0.00;;;;;23.12;48.32;100938.69;5097687;27;47026;-63
2021/08/16 07:00:34;;;;;;;;;0.33;0.33;;;;;23.13;47.97;100935.03;5081528;27;45572;-64
2021/08/16 07:02:59;;;;;;;;;0.00;0.00;;;;;23.15;48.17;100937.63;5058753;28;45483;-64
2021/08/16 07:05:25;;;;;;;;;1.00;1.00;;;;;23.17;48.00;100936.53;5064763;28;45655;-64
2021/08/16 07:07:53;;;;;;;;;2.00;2.00;;;;;23.19;48.23;100948.09;5063054;28;46970;-64
2021/08/16 07:10:20;;;;;;;;;2.33;1.00;;;;;23.19;48.37;100939.13;5060656;28;45498;-64
2021/08/16 07:12:46;;;;;;;;;1.00;1.00;;;;;23.16;48.08;100951.03;5067276;28;45372;-64
2021/08/16 07:15:11;;;;;;;;;1.00;1.00;;;;;23.16;48.51;100951.03;5065194;28;45582;-64
2021/08/16 07:17:37;;;;;;;;;1.00;1.00;;;;;23.15;47.98;100954.72;5066474;28;48422;-63
2021/08/16 07:20:04;;;;;;;;;0.00;0.00;;;;;23.12;48.38;100954.94;5061076;28;45370;-65
2021/08/16 07:22:30;;;;;;;;;1.00;1.00;;;;;23.11;48.00;100961.31;5066464;28;45405;-63
2021/08/16 07:24:55;;;;;;;;;1.00;1.00;;;;;23.07;48.43;100954.38;5061180;28;45548;-63
2021/08/16 07:27:20;;;;;;;;;1.00;1.00;;;;;23.07;48.59;100961.63;5063531;28;47257;-64
2021/08/16 07:29:46;;;;;;;;;1.67;1.67;;;;;23.09;48.66;100959.69;5061261;28;45348;-63
2021/08/16 07:32:12;;;;;;;;;0.33;0.33;;;;;23.08;48.73;100958.81;5061071;28;45416;-64
2021/08/16 07:34:37;;;;;;;;;0.00;0.00;;;;;;;;5059045;28;45644;-64
2021/08/16 07:37:04;;;;;;;;;2.00;1.00;;;;;23.11;48.73;100961.31;5044887;28;47073;-63
2021/08/16 07:39:30;;;;;;;;;0.00;0.00;;;;;23.17;48.87;100969.00;5061736;28;45556;-63
2021/08/16 07:41:56;;;;;;;;;0.00;0.00;;;;;23.17;49.23;100969.00;5056352;28;45516;-63
2021/08/16 07:44:22;;;;;;;;;1.00;1.00;;;;;23.16;48.74;100967.28;5061986;28;45489;-63
2021/08/16 07:46:47;;;;;;;;;1.00;1.00;;;;;23.13;48.49;100967.50;5064297;27;46213;-64
2021/08/16 07:49:13;;;;;;;;;0.00;0.00;;;;;23.11;48.59;100973.97;5070959;28;45333;-64
2021/08/16 07:51:38;;;;;;;;;1.00;0.67;;;;;;;;5077030;27;45296;-63
2021/08/16 07:54:04;;;;;;;;;0.00;0.00;;;;;23.06;49.38;100976.16;5061603;27;45431;-63
2021/08/16 07:56:29;;;;;;;;;0.33;0.33;;;;;23.03;49.25;100974.53;5060727;28;47239;-64
2021/08/16 07:58:55;;;;;;;;;1.00;1.00;;;;;23.01;49.34;100970.22;5052266;28;45583;-66
2021/08/16 08:01:20;;;;;;;;;1.67;1.00;;;;;23.01;49.65;100967.50;5060064;28;45353;-66
2021/08/16 08:03:46;;;;;;;;;1.00;1.00;;;;;23.01;49.77;100968.38;5076536;27;45329;-65
2021/08/16 08:06:11;;;;;;;;;0.67;0.67;;;;;23.02;49.78;100970.09;5061447;28;46932;-65
2021/08/16 08:08:37;;;;;;;;;0.00;0.00;;;;;;;;5060767;28;45259;-64
2021/08/16 08:11:03;;;;;;;;;1.67;1.67;;;;;23.11;49.73;100977.56;5069046;28;45365;-65
2021/08/16 08:13:28;;;;;;;;;3.00;2.00;;;;;23.13;49.54;100972.91;5068204;27;45355;-65
2021/08/16 08:15:54;;;;;;;;;1.00;1.00;;;;;23.15;49.41;100986.34;5058932;28;48141;-65
2021/08/16 08:18:19;;;;;;;;;1.00;1.00;;;;;23.17;49.70;100978.97;5061370;27;46471;-65
2021/08/16 08:20:45;;;;;;;;;0.67;0.67;;;;;23.17;49.46;100969.00;5062293;28;45275;-65
2021/08/16 08:23:10;;;;;;;;;0.33;0.33;;;;;23.21;49.94;100980.47;5076282;27;45356;-65
2021/08/16 08:25:38;;;;;;;;;1.00;1.00;;;;;23.22;49.49;100992.19;5061553;28;45982;-63
2021/08/16 08:28:05;;;;;;;;;1.00;1.00;;;;;23.23;49.93;100994.78;5058405;27;45427;-65
2021/08/16 08:30:31;;;;;;;;;0.67;0.67;;;;;23.25;49.86;100990.16;5062134;28;45452;-66
2021/08/16 08:32:56;;;;;;;;;1.00;1.00;;;;;23.28;49.79;100999.91;5057290;28;45698;-66
2021/08/16 08:35:23;;;;;;;;;0.33;0.33;;;;;23.32;49.58;100993.28;5064281;28;48001;-65
2021/08/16 08:37:50;;;;;;;;;2.00;1.00;;;;;23.33;49.92;101000.41;5067772;27;46254;-65
2021/08/16 08:40:16;;;;;;;;;0.67;0.67;;;;;23.31;49.54;100995.13;5061516;28;45416;-65
2021/08/16 08:42:53;;;;;;;;;1.00;1.00;;;;;23.32;49.57;100993.28;5067969;27;45325;-64
2021/08/16 08:45:21;;;;;;;;;1.00;1.00;;;;;23.32;49.70;100999.56;5060370;28;46466;-65
2021/08/16 08:47:47;;;;;;;;;1.67;1.00;;;;;23.32;49.81;101002.25;5081915;27;45317;-65
2021/08/16 08:50:15;;;;;;;;;2.33;2.00;;;;;23.31;49.82;101003.25;5057983;28;45381;-65
2021/08/16 08:52:45;;;;;;;;;1.00;1.00;;;;;23.29;49.86;100993.50;5056187;27;46575;-66
2021/08/16 08:55:12;;;;;;;;;1.67;1.67;;;;;23.29;49.75;101009.75;5065852;28;46329;-66
2021/08/16 08:57:39;;;;;;;;;0.67;0.67;;;;;23.26;49.98;101007.25;5069464;28;45474;-66
2021/08/16 09:00:07;;;;;;;;;2.67;1.33;;;;;23.25;50.03;101009.09;5058273;28;45676;-66
2021/08/16 09:02:32;;;;;;;;;1.00;1.00;;;;;23.24;50.35;101006.47;5050346;28;45462;-66
2021/08/16 09:05:00;;;;;;;;;1.00;1.00;;;;;23.24;50.35;101014.59;5057583;28;46971;-66
2021/08/16 09:07:37;;;;;;;;;1.00;0.00;;;;;23.24;50.20;101004.63;5064386;28;45820;-67
2021/08/16 09:10:09;;;;;;;;;1.00;1.00;;;;;23.24;50.11;101011.88;5048250;28;45744;-66
2021/08/16 09:12:37;;;;;;;;;1.67;0.67;;;;;23.23;50.33;101019.16;5059898;28;45354;-66
2021/08/16 09:15:16;;;;;;;;;1.00;1.00;;;;;23.24;50.35;101023.59;5059248;28;45385;-66
2021/08/16 09:17:42;;;;;;;;;2.33;1.00;;;;;23.23;50.71;101026.41;5048254;28;45307;-67
2021/08/16 09:20:19;;;;;;;;;0.67;0.67;;;;;23.25;50.70;101029.88;5059396;28;45625;-68
2021/08/16 09:23:03;;;;;;;;;1.00;1.00;;;;;23.29;51.20;101034.13;5058709;28;45380;-67
2021/08/16 09:25:33;;;;;;;;;1.33;1.00;;;;;23.33;51.34;101030.22;5057882;28;48216;-67
2021/08/16 09:27:59;;;;;;;;;2.00;2.00;;;;;23.32;52.00;101036.59;5059438;28;45675;-67
2021/08/16 09:30:35;;;;;;;;;1.00;1.00;;;;;23.28;52.28;101040.50;5059415;28;45354;-66
2021/08/16 09:33:17;;;;;;;;;1.67;1.00;;;;;23.26;52.76;101050.59;5062771;27;45446;-67
2021/08/16 09:35:50;;;;;;;;;1.67;0.67;;;;;23.27;53.30;101041.50;5052882;28;45475;-67
2021/08/16 09:38:15;;;;;;;;;1.00;1.00;;;;;23.37;53.41;101045.25;5056092;27;45716;-67
2021/08/16 09:40:41;;;;;;;;;1.33;1.33;;;;;23.48;53.33;101046.25;5041145;28;45394;-67
2021/08/16 09:43:06;;;;;;;;;2.00;2.00;;;;;23.54;53.08;101047.69;5087470;27;45299;-67
2021/08/16 09:45:35;;;;;;;;;2.00;2.00;;;;;23.62;53.36;101052.56;5067269;28;45755;-67
2021/08/16 09:48:02;;;;;;;;;1.67;1.67;;;;;23.67;53.07;101045.88;5075264;27;45507;-66
2021/08/16 09:50:40;;;;;;;;;1.00;1.00;;;;;23.70;53.17;101045.63;5076525;28;45545;-66
2021/08/16 09:53:07;;;;;;;;;1.00;1.00;;;;;23.74;52.92;101046.28;5057891;28;45605;-67
2021/08/16 09:55:37;;;;;;;;;1.00;1.00;;;;;23.74;53.16;101049.84;5072130;28;46245;-66
2021/08/16 09:58:06;;;;;;;;;2.00;1.00;;;;;23.69;52.40;101049.31;5064624;27;45567;-66
2021/08/16 10:00:32;;;;;;;;;1.67;1.67;;;;;23.64;53.22;101053.34;5051186;28;45283;-66
2021/08/16 10:03:00;;;;;;;;;1.00;1.00;;;;;23.59;52.83;101050.09;5049467;28;45321;-66
2021/08/16 10:05:27;;;;;;;;;1.00;1.00;;;;;23.59;52.90;101042.81;5064853;28;48170;-66
2021/08/16 10:07:54;;;;;;;;;2.00;2.00;;;;;23.68;52.46;101049.44;5092299;27;45416;-66
2021/08/16 10:10:20;;;;;;;;;1.67;1.67;;;;;23.83;52.65;101044.75;5063450;27;45891;-67
2021/08/16 10:12:47;;;;;;;;;1.67;1.67;;;;;23.93;52.52;101048.53;5075188;28;45283;-66
2021/08/16 10:15:13;;;;;;;;;2.00;2.00;;;;;23.97;52.10;101053.63;5058848;27;47853;-68
2021/08/16 10:17:42;;;;;;;;;1.33;1.33;;;;;23.97;51.88;101050.06;5050260;27;45458;-67
2021/08/16 10:20:09;;;;;;;;;3.00;3.00;;;;;23.98;52.21;101051.78;5061976;28;45342;-67
2021/08/16 10:22:38;;;;;;;;;2.33;2.33;;;;;24.05;52.21;101063.94;5051045;28;45390;-66
2021/08/16 10:25:17;;;;;;;;;2.00;2.00;;;;;24.12;52.22;101073.34;5056053;28;47199;-70
2021/08/16 10:27:43;;;;;;;;;2.67;2.67;;;;;24.19;51.54;101069.22;5057555;28;45355;-71
2021/08/16 10:30:11;;;;;;;;;3.00;2.33;;;;;24.26;51.56;101084.03;5062534;28;45284;-72
2021/08/16 10:32:37;;;;;;;;;2.33;2.33;;;;;24.28;51.08;101083.94;5058605;28;45420;-69
2021/08/16 10:35:11;;;;;;;;;2.00;2.00;;;;;24.24;51.25;101082.41;5052319;28;47471;-70
2021/08/16 10:37:40;;;;;;;;;1.00;1.00;;;;;24.22;51.57;101074.41;5058113;28;45533;-69
2021/08/16 10:40:17;;;;;;;;;3.00;3.00;;;;;24.28;51.47;101083.94;5049146;28;45852;-70
2021/08/16 10:42:43;;;;;;;;;2.00;2.00;;;;;24.33;51.15;101085.38;5063397;28;45436;-69
2021/08/16 10:45:09;;;;;;;;;2.00;2.00;;;;;24.38;50.67;101081.44;5054385;28;47858;-70
2021/08/16 10:47:36;;;;;;;;;4.33;2.33;;;;;24.43;50.68;101087.41;5056006;28;45619;-68
2021/08/16 10:50:18;;;;;;;;;5.00;5.00;;;;;24.48;50.57;101083.38;5051531;27;45693;-69
2021/08/16 10:52:44;;;;;;;;;2.67;1.33;;;;;24.41;50.19;101082.09;5057329;28;45302;-69
2021/08/16 10:55:30;;;;;;;;;4.33;3.00;;;;;24.30;50.17;101088.31;5057579;28;47783;-71
2021/08/16 10:57:56;;;;;;;;;3.00;1.33;;;;;24.22;50.58;101103.38;5090485;27;45299;-70
2021/08/16 11:00:22;;;;;;;;;1.00;1.00;;;;;24.18;50.24;101100.03;5058145;28;45733;-71
2021/08/16 11:02:57;;;;;;;;;3.00;3.00;;;;;24.20;50.06;101113.47;5055091;28;45564;-71
2021/08/16 11:05:41;;;;;;;;;8.33;7.00;;;;;24.24;49.43;101121.25;5053575;28;47349;-71
2021/08/16 11:08:09;;;;;;;;;11.00;11.00;;;;;24.30;49.57;101112.72;5053529;28;45594;-73
2021/08/16 11:10:44;;;;;;;;;18.50;17.25;;;;;24.35;49.72;101112.38;5057116;28;45621;-71
2021/08/16 11:13:20;;;;;;;;;11.50;11.50;;;;;24.38;48.63;101128.41;5057701;28;45465;-72
2021/08/16 11:15:48;;;;;;;;;13.25;13.25;;;;;24.34;48.27;101130.50;5056676;28;47103;-72
2021/08/16 11:18:17;;;;;;;;;5.33;5.33;;;;;24.34;47.99;101125.06;5056599;28;45608;-72
2021/08/16 11:20:44;;;;;;;;;6.75;6.75;;;;;24.36;48.23;101138.53;5055299;27;45487;-72
2021/08/16 11:23:10;;;;;;;;;6.00;6.00;;;;;24.41;47.70;101141.78;5058577;27;45446;-71
2021/08/16 11:25:48;;;;;;;;;6.67;6.00;;;;;24.35;47.27;101137.66;5056374;28;47421;-71